Anahola, Hawaii
Current Conditions -  °F | °C
As of 1:32 AM on Monday 20 Oct 2014 (Local Time) from PHLI Reporting Station
Broken Clouds Broken Clouds  
Wind Chill: 79°   Ceiling: 11000
Heat Index: 82°   Visibility: 10mi
Dew Point: 72°   Wind: 12mph
Humidity: 78%   Direction: 80°E
Pressure: 30"   Gusts: NA
Location:  22.14°N, 159.31°W
Report Text: PHLI 201132Z 08010KT 10SM SCT020 BKN110 26/22 A3000 RMK AO2
Loading
Personal Weather Stations






























Interactive Weather Map New forecast layout! Learn more

10-Day Weather Forecast

Advertisements
Track Severe Weather on mobile